Time;durP1;ratioP1;P1;durP2;ratioP2;P2;SDS_P1;SDS_P2;PMS_P1;PMS_P2;Temp;Humidity;BMP_temperature;BMP_pressure;BME280_temperature;BME280_humidity;BME280_pressure;Samples;Min_cycle;Max_cycle;Signal;HPM_P1;HPM_P2
2021/12/15 00:02:35;;;;;;;35.57;15.67;;;;;;;;;;5025904;28;20442;-54
2021/12/15 00:05:11;;;;;;;34.20;17.07;;;;;;;;;;5046471;28;20441;-56
2021/12/15 00:07:45;;;;;;;31.93;14.77;;;;;;;;;;5038651;28;20439;-57
2021/12/15 00:10:12;;;;;;;28.37;15.40;;;;;;;;;;5034074;28;20587;-55
2021/12/15 00:12:53;;;;;;;30.30;14.27;;;;;;;;;;5028654;28;20438;-56
2021/12/15 00:15:22;;;;;;;34.63;15.80;;;;;;;;;;5030335;28;20443;-55
2021/12/15 00:17:48;;;;;;;41.10;17.17;;;;;;;;;;5041163;28;20441;-55
2021/12/15 00:20:15;;;;;;;27.13;15.57;;;;;;;;;;5026289;28;20554;-55
2021/12/15 00:22:42;;;;;;;30.90;15.43;;;;;;;;;;5042058;28;20511;-55
2021/12/15 00:25:20;;;;;;;30.90;16.00;;;;;;;;;;5047670;28;21029;-55
2021/12/15 00:27:48;;;;;;;42.50;17.13;;;;;;;;;;5040607;28;20450;-55
2021/12/15 00:30:14;;;;;;;35.47;16.73;;;;;;;;;;5036899;28;20554;-55
2021/12/15 00:32:40;;;;;;;32.33;17.20;;;;;;;;;;5041988;28;20477;-56
2021/12/15 00:35:06;;;;;;;38.10;18.67;;;;;;;;;;5014806;28;20442;-56
2021/12/15 00:37:32;;;;;;;40.33;19.30;;;;;;;;;;5034863;28;20427;-56
2021/12/15 00:40:00;;;;;;;34.47;16.87;;;;;;;;;;5036181;28;20442;-56
2021/12/15 00:42:26;;;;;;;31.90;15.40;;;;;;;;;;5037702;28;20430;-56
2021/12/15 00:44:52;;;;;;;43.20;17.00;;;;;;;;;;5001715;28;20449;-55
2021/12/15 00:47:19;;;;;;;32.50;16.50;;;;;;;;;;5025179;28;20434;-57
2021/12/15 00:50:12;;;;;;;37.20;17.50;;;;;;;;;;5024727;28;20486;-55
2021/12/15 00:52:43;;;;;;;32.17;15.53;;;;;;;;;;5025661;28;20430;-61
2021/12/15 00:55:11;;;;;;;31.70;15.93;;;;;;;;;;5044530;28;20443;-55
2021/12/15 00:57:38;;;;;;;33.93;15.90;;;;;;;;;;5032553;28;20578;-55
2021/12/15 01:00:05;;;;;;;39.90;15.77;;;;;;;;;;5043019;28;20447;-55
2021/12/15 01:02:31;;;;;;;32.07;15.80;;;;;;;;;;5037488;28;20549;-56
2021/12/15 01:04:59;;;;;;;32.10;15.17;;;;;;;;;;5044691;28;20430;-56
2021/12/15 01:07:25;;;;;;;37.57;16.27;;;;;;;;;;5039635;28;20457;-55
2021/12/15 01:09:56;;;;;;;28.80;16.10;;;;;;;;;;5050478;28;20470;-54
2021/12/15 01:14:29;;;;;;;32.30;15.27;;;;;;;;;;5040609;28;20465;-55
2021/12/15 01:21:20;;;;;;;39.10;17.07;;;;;;;;;;5043057;28;20488;-56
2021/12/15 01:23:46;;;;;;;28.10;14.80;;;;;;;;;;5040276;28;20434;-56
2021/12/15 01:26:13;;;;;;;31.50;16.87;;;;;;;;;;5020499;28;20507;-56
2021/12/15 01:28:39;;;;;;;29.77;16.17;;;;;;;;;;5041338;28;20462;-56
2021/12/15 01:31:06;;;;;;;32.90;14.80;;;;;;;;;;5041743;28;20555;-56
2021/12/15 01:33:42;;;;;;;31.83;14.97;;;;;;;;;;5043490;28;20483;-56
2021/12/15 01:36:14;;;;;;;36.03;16.87;;;;;;;;;;5015264;28;20473;-57
2021/12/15 01:38:40;;;;;;;42.07;16.90;;;;;;;;;;5039169;28;20431;-56
2021/12/15 01:41:22;;;;;;;30.73;14.30;;;;;;;;;;5022837;28;20442;-56
2021/12/15 01:46:52;;;;;;;29.10;15.37;;;;;;;;;;5037854;28;20481;-55
2021/12/15 01:46:56;;;;;;;29.73;14.77;;;;;;;;;;4992623;28;20501;-54
2021/12/15 01:49:26;;;;;;;34.77;17.83;;;;;;;;;;5039193;28;20431;-55
2021/12/15 01:51:54;;;;;;;27.67;13.27;;;;;;;;;;5028866;28;20451;-56
2021/12/15 01:54:20;;;;;;;29.33;14.00;;;;;;;;;;5023783;28;21022;-55
2021/12/15 01:56:57;;;;;;;31.67;15.60;;;;;;;;;;4993366;28;20451;-56
2021/12/15 01:59:25;;;;;;;28.70;16.57;;;;;;;;;;5037312;28;20468;-55
2021/12/15 02:01:51;;;;;;;32.50;15.67;;;;;;;;;;5011242;28;20591;-60
2021/12/15 02:04:19;;;;;;;25.63;13.50;;;;;;;;;;5038707;28;20485;-57
2021/12/15 02:06:45;;;;;;;31.20;15.20;;;;;;;;;;5021861;28;20460;-54
2021/12/15 02:09:12;;;;;;;40.03;17.73;;;;;;;;;;5035985;28;20435;-53
2021/12/15 02:11:38;;;;;;;30.10;14.60;;;;;;;;;;5018782;28;20502;-54
2021/12/15 02:14:05;;;;;;;29.73;15.80;;;;;;;;;;5037996;28;20430;-56
2021/12/15 02:16:31;;;;;;;29.07;16.10;;;;;;;;;;5011743;28;20446;-55
2021/12/15 02:18:57;;;;;;;29.43;15.10;;;;;;;;;;5039512;28;20797;-55
2021/12/15 02:21:28;;;;;;;28.23;13.23;;;;;;;;;;5032360;28;20505;-57
2021/12/15 02:23:56;;;;;;;26.33;13.63;;;;;;;;;;5040485;28;20445;-55
2021/12/15 02:26:25;;;;;;;32.43;16.20;;;;;;;;;;5013191;28;20799;-55
2021/12/15 02:28:52;;;;;;;29.00;15.33;;;;;;;;;;5033255;28;20459;-55
2021/12/15 02:31:55;;;;;;;23.77;12.87;;;;;;;;;;5034187;28;20474;-56
2021/12/15 02:39:21;;;;;;;19.80;10.03;;;;;;;;;;5034544;28;20956;-54
2021/12/15 02:41:48;;;;;;;19.40;12.27;;;;;;;;;;5020684;28;20469;-56
2021/12/15 02:44:16;;;;;;;19.83;11.30;;;;;;;;;;5035557;28;20487;-56
2021/12/15 02:46:43;;;;;;;20.57;12.77;;;;;;;;;;5007141;28;20515;-56
2021/12/15 02:49:10;;;;;;;20.80;11.97;;;;;;;;;;5036701;28;20427;-55
2021/12/15 02:51:38;;;;;;;23.70;13.27;;;;;;;;;;4976256;28;20496;-56
2021/12/15 02:54:07;;;;;;;20.93;13.33;;;;;;;;;;5034645;28;20937;-57
2021/12/15 02:56:40;;;;;;;24.50;15.40;;;;;;;;;;5027865;28;20570;-56
2021/12/15 02:59:20;;;;;;;21.63;14.00;;;;;;;;;;5031482;28;20438;-57
2021/12/15 03:15:46;;;;;;;24.03;12.60;;;;;;;;;;5034271;28;20764;-58
2021/12/15 03:18:14;;;;;;;22.00;13.83;;;;;;;;;;5014347;28;20460;-55
2021/12/15 03:20:45;;;;;;;21.10;11.03;;;;;;;;;;5037513;28;20423;-55
2021/12/15 03:23:11;;;;;;;26.13;13.20;;;;;;;;;;5025652;28;20442;-56
2021/12/15 03:25:37;;;;;;;18.73;11.33;;;;;;;;;;5044059;28;20442;-56
2021/12/15 03:33:40;;;;;;;21.50;13.00;;;;;;;;;;5041114;28;20522;-56
2021/12/15 03:38:55;;;;;;;26.63;15.03;;;;;;;;;;5027467;28;20484;-55
2021/12/15 03:42:06;;;;;;;27.37;12.97;;;;;;;;;;5037524;28;20479;-54
2021/12/15 03:44:34;;;;;;;27.43;13.93;;;;;;;;;;5043776;28;20450;-55
2021/12/15 03:47:07;;;;;;;20.30;12.10;;;;;;;;;;5020479;28;21723;-56
2021/12/15 03:49:36;;;;;;;21.97;12.80;;;;;;;;;;5038650;28;20537;-56
2021/12/15 03:52:03;;;;;;;21.97;13.27;;;;;;;;;;5011951;28;21393;-54
2021/12/15 03:54:29;;;;;;;22.03;12.13;;;;;;;;;;5040457;28;20851;-55
2021/12/15 03:57:20;;;;;;;21.47;13.50;;;;;;;;;;5052023;28;20448;-55
2021/12/15 03:59:49;;;;;;;21.30;12.07;;;;;;;;;;5040437;28;21004;-56
2021/12/15 04:02:15;;;;;;;25.83;11.90;;;;;;;;;;5035651;28;20846;-55
2021/12/15 04:04:44;;;;;;;19.80;10.57;;;;;;;;;;5038084;28;20434;-56
2021/12/15 04:07:10;;;;;;;19.50;11.47;;;;;;;;;;5016997;28;21487;-54
2021/12/15 04:09:37;;;;;;;6.63;5.10;;;;;;;;;;5037195;28;20432;-55
2021/12/15 04:12:03;;;;;;;7.50;4.00;;;;;;;;;;5031714;28;20451;-56
2021/12/15 04:14:35;;;;;;;9.83;7.37;;;;;;;;;;5036014;28;20478;-55
2021/12/15 04:17:04;;;;;;;11.20;6.37;;;;;;;;;;5009924;28;22564;-54
2021/12/15 04:19:30;;;;;;;10.93;6.10;;;;;;;;;;5034677;28;20441;-55
2021/12/15 04:22:11;;;;;;;10.23;7.00;;;;;;;;;;5037380;28;21194;-55
2021/12/15 04:24:38;;;;;;;13.53;7.60;;;;;;;;;;5037880;28;20449;-56
2021/12/15 04:27:24;;;;;;;17.30;9.03;;;;;;;;;;5031001;28;20526;-55
2021/12/15 04:29:53;;;;;;;19.80;10.80;;;;;;;;;;5046486;28;20462;-56
2021/12/15 04:32:25;;;;;;;21.83;9.77;;;;;;;;;;4994322;28;20809;-55
2021/12/15 04:34:51;;;;;;;19.57;10.20;;;;;;;;;;5036108;28;20852;-57
2021/12/15 04:37:34;;;;;;;21.90;10.37;;;;;;;;;;5013809;28;22440;-56
2021/12/15 04:40:02;;;;;;;19.30;10.27;;;;;;;;;;5030206;28;20943;-56
2021/12/15 04:42:28;;;;;;;23.00;11.30;;;;;;;;;;5018746;28;20738;-56
2021/12/15 04:44:56;;;;;;;17.70;10.20;;;;;;;;;;5027409;28;20529;-56
2021/12/15 04:47:32;;;;;;;15.80;8.33;;;;;;;;;;5024532;28;21062;-57
2021/12/15 04:50:01;;;;;;;11.83;7.73;;;;;;;;;;5028819;28;20486;-55
2021/12/15 04:52:30;;;;;;;12.10;7.40;;;;;;;;;;5030925;28;20474;-55
2021/12/15 04:54:58;;;;;;;12.17;8.40;;;;;;;;;;5038426;28;20458;-55
2021/12/15 04:57:25;;;;;;;12.77;8.57;;;;;;;;;;5035506;28;20976;-56
2021/12/15 04:59:58;;;;;;;15.10;9.83;;;;;;;;;;5036106;28;20431;-55
2021/12/15 05:02:25;;;;;;;16.10;9.10;;;;;;;;;;5025123;28;20443;-55
2021/12/15 05:04:53;;;;;;;16.80;10.10;;;;;;;;;;5016378;28;20439;-55
2021/12/15 05:07:19;;;;;;;14.97;9.20;;;;;;;;;;5034823;28;20434;-55
2021/12/15 05:09:49;;;;;;;17.77;10.20;;;;;;;;;;5035292;28;20439;-54
2021/12/15 05:12:27;;;;;;;19.90;10.93;;;;;;;;;;5039746;28;20469;-56
2021/12/15 05:14:54;;;;;;;13.80;9.07;;;;;;;;;;5039365;28;21255;-55
2021/12/15 05:17:31;;;;;;;14.97;9.63;;;;;;;;;;5032161;28;20841;-56
2021/12/15 05:20:04;;;;;;;17.03;9.30;;;;;;;;;;5037249;28;20453;-56
2021/12/15 05:22:35;;;;;;;13.60;7.90;;;;;;;;;;5033421;28;20763;-56
2021/12/15 05:25:01;;;;;;;10.90;7.03;;;;;;;;;;5052396;28;20674;-55
2021/12/15 05:27:27;;;;;;;12.90;7.50;;;;;;;;;;5022820;28;20568;-55
2021/12/15 05:29:53;;;;;;;12.70;7.43;;;;;;;;;;5041393;28;20462;-56
2021/12/15 05:32:21;;;;;;;9.70;6.43;;;;;;;;;;5030983;28;21947;-56
2021/12/15 05:35:22;;;;;;;11.70;8.50;;;;;;;;;;5037772;28;20494;-57
2021/12/15 05:37:54;;;;;;;9.50;6.80;;;;;;;;;;4994828;28;20462;-55
2021/12/15 05:40:21;;;;;;;12.50;7.57;;;;;;;;;;5034612;28;20803;-56
2021/12/15 05:42:47;;;;;;;12.43;8.00;;;;;;;;;;5036182;28;20431;-55
2021/12/15 05:45:13;;;;;;;10.40;6.70;;;;;;;;;;5014002;28;20470;-54
2021/12/15 05:47:39;;;;;;;9.20;7.13;;;;;;;;;;5035352;28;21029;-54
2021/12/15 05:50:06;;;;;;;8.97;7.17;;;;;;;;;;5021635;28;20470;-55
2021/12/15 05:52:49;;;;;;;9.10;6.33;;;;;;;;;;5055915;28;20491;-56
2021/12/15 05:55:29;;;;;;;11.87;7.87;;;;;;;;;;5025604;28;20537;-57
2021/12/15 05:58:10;;;;;;;8.43;6.33;;;;;;;;;;5021478;28;20923;-56
2021/12/15 06:00:41;;;;;;;9.57;6.10;;;;;;;;;;5025878;28;20442;-55
2021/12/15 06:03:07;;;;;;;8.93;6.93;;;;;;;;;;5033625;28;20529;-54
2021/12/15 06:05:33;;;;;;;10.33;6.50;;;;;;;;;;5036191;28;20620;-55
2021/12/15 06:08:31;;;;;;;11.40;6.73;;;;;;;;;;5032796;28;20434;-57
2021/12/15 06:10:58;;;;;;;8.00;5.70;;;;;;;;;;5039098;28;20462;-57
2021/12/15 06:13:27;;;;;;;13.90;7.33;;;;;;;;;;5009820;28;20438;-55
2021/12/15 06:15:53;;;;;;;12.27;6.90;;;;;;;;;;5041107;28;20438;-55
2021/12/15 06:18:27;;;;;;;12.20;7.60;;;;;;;;;;5034688;28;20442;-55
2021/12/15 06:20:57;;;;;;;7.77;6.60;;;;;;;;;;5027449;28;20540;-56
2021/12/15 06:23:30;;;;;;;8.97;7.90;;;;;;;;;;5017089;28;21537;-57
2021/12/15 06:26:00;;;;;;;7.80;6.83;;;;;;;;;;5036606;28;21218;-54
2021/12/15 06:28:27;;;;;;;10.33;7.20;;;;;;;;;;5015238;28;21491;-55
2021/12/15 06:30:53;;;;;;;12.33;7.77;;;;;;;;;;5038313;28;20964;-55
2021/12/15 06:33:20;;;;;;;8.90;7.00;;;;;;;;;;5035017;28;20439;-56
2021/12/15 06:35:52;;;;;;;9.10;7.20;;;;;;;;;;5041079;28;20585;-56
2021/12/15 06:38:22;;;;;;;7.40;6.70;;;;;;;;;;5039756;28;20495;-53
2021/12/15 06:40:48;;;;;;;10.87;7.50;;;;;;;;;;5040934;28;20443;-56
2021/12/15 06:43:14;;;;;;;12.43;7.00;;;;;;;;;;5011513;28;20426;-56
2021/12/15 06:45:56;;;;;;;8.23;6.43;;;;;;;;;;5030641;28;20436;-56
2021/12/15 06:59:20;;;;;;;8.30;7.37;;;;;;;;;;5022026;28;20437;-55
2021/12/15 07:01:46;;;;;;;10.20;6.37;;;;;;;;;;5053508;28;20442;-56
2021/12/15 07:04:26;;;;;;;10.87;7.90;;;;;;;;;;4994030;28;20435;-57
2021/12/15 07:06:55;;;;;;;9.20;7.37;;;;;;;;;;5017795;28;22949;-57
2021/12/15 07:09:21;;;;;;;12.20;6.97;;;;;;;;;;5034012;28;20442;-57
2021/12/15 07:11:50;;;;;;;11.47;8.00;;;;;;;;;;5010572;28;20469;-57
2021/12/15 07:14:16;;;;;;;11.77;7.63;;;;;;;;;;5031540;28;20608;-55
2021/12/15 07:16:47;;;;;;;12.50;7.57;;;;;;;;;;4995575;28;20756;-58
2021/12/15 07:21:51;;;;;;;11.77;9.03;;;;;;;;;;5020542;28;20872;-57
2021/12/15 07:24:18;;;;;;;14.23;8.70;;;;;;;;;;5042960;28;20452;-58
2021/12/15 07:26:45;;;;;;;10.60;7.17;;;;;;;;;;5012088;28;20440;-58
2021/12/15 07:29:11;;;;;;;11.47;8.30;;;;;;;;;;5042200;28;20934;-61
2021/12/15 07:31:37;;;;;;;11.20;9.60;;;;;;;;;;5037609;28;20482;-57
2021/12/15 07:34:05;;;;;;;14.73;8.20;;;;;;;;;;5038428;28;20455;-57
2021/12/15 07:36:31;;;;;;;11.30;8.57;;;;;;;;;;5016200;28;20450;-58
2021/12/15 07:38:58;;;;;;;10.57;8.37;;;;;;;;;;5024022;28;20905;-55
2021/12/15 07:41:35;;;;;;;13.13;8.80;;;;;;;;;;5032110;28;20441;-58
2021/12/15 07:44:06;;;;;;;12.77;8.80;;;;;;;;;;5033190;28;20493;-57
2021/12/15 07:46:33;;;;;;;13.60;10.60;;;;;;;;;;5038462;28;20467;-56
2021/12/15 07:49:25;;;;;;;15.17;10.10;;;;;;;;;;5029506;28;20434;-57
2021/12/15 07:52:00;;;;;;;16.60;9.70;;;;;;;;;;5036206;28;20474;-57
2021/12/15 07:54:28;;;;;;;13.47;9.33;;;;;;;;;;5039042;28;20472;-58
2021/12/15 07:56:54;;;;;;;12.90;9.43;;;;;;;;;;5041599;28;21167;-57
2021/12/15 07:59:24;;;;;;;13.73;10.53;;;;;;;;;;5024001;28;20434;-57
2021/12/15 08:02:07;;;;;;;17.30;10.80;;;;;;;;;;5026577;28;20507;-56
2021/12/15 08:04:41;;;;;;;14.83;10.10;;;;;;;;;;5028997;28;20691;-56
2021/12/15 08:07:40;;;;;;;11.60;8.87;;;;;;;;;;5037039;28;21029;-57
2021/12/15 08:10:09;;;;;;;12.40;8.17;;;;;;;;;;5036723;28;20486;-55
2021/12/15 08:12:35;;;;;;;11.00;7.87;;;;;;;;;;5021833;28;20522;-60
2021/12/15 08:15:02;;;;;;;13.90;8.93;;;;;;;;;;5041744;28;20422;-57
2021/12/15 08:17:28;;;;;;;13.37;7.80;;;;;;;;;;5029034;28;20446;-56
2021/12/15 08:19:54;;;;;;;13.67;8.20;;;;;;;;;;5040198;28;20443;-56
2021/12/15 08:22:20;;;;;;;11.07;7.53;;;;;;;;;;5019726;28;20426;-57
2021/12/15 08:24:47;;;;;;;11.60;7.73;;;;;;;;;;5052676;28;20552;-56
2021/12/15 08:27:14;;;;;;;12.30;7.77;;;;;;;;;;5051589;28;20440;-56
2021/12/15 08:29:40;;;;;;;9.57;8.23;;;;;;;;;;5040692;28;20443;-55
2021/12/15 08:32:07;;;;;;;10.60;8.10;;;;;;;;;;5041528;28;20454;-57
2021/12/15 08:34:33;;;;;;;16.33;7.17;;;;;;;;;;5039794;28;20443;-57
2021/12/15 08:37:00;;;;;;;10.23;7.80;;;;;;;;;;5021952;28;20441;-56
2021/12/15 08:39:27;;;;;;;8.50;6.47;;;;;;;;;;5043137;28;21017;-57
2021/12/15 08:41:52;;;;;;;11.27;7.87;;;;;;;;;;5016030;28;21474;-56
2021/12/15 08:44:18;;;;;;;9.63;8.00;;;;;;;;;;5039403;28;20445;-56
2021/12/15 08:46:47;;;;;;;10.37;7.33;;;;;;;;;;5048466;28;20500;-56
2021/12/15 08:49:16;;;;;;;9.67;6.47;;;;;;;;;;5036779;28;20435;-57
2021/12/15 08:51:52;;;;;;;8.70;7.13;;;;;;;;;;5019592;28;20483;-57
2021/12/15 08:54:21;;;;;;;9.60;6.60;;;;;;;;;;5034381;28;20491;-56
2021/12/15 08:56:47;;;;;;;8.47;6.60;;;;;;;;;;4995948;28;20449;-56
2021/12/15 08:59:13;;;;;;;9.50;6.93;;;;;;;;;;5036571;28;21101;-55
2021/12/15 09:01:48;;;;;;;7.07;5.40;;;;;;;;;;5031909;28;20443;-58
2021/12/15 09:04:19;;;;;;;7.20;5.70;;;;;;;;;;5038655;28;20529;-56
2021/12/15 09:06:58;;;;;;;8.47;6.43;;;;;;;;;;5029319;28;20451;-57
2021/12/15 09:09:27;;;;;;;7.27;5.53;;;;;;;;;;5035085;28;20473;-57
2021/12/15 09:11:54;;;;;;;9.10;6.20;;;;;;;;;;5031683;28;20585;-56
2021/12/15 09:14:20;;;;;;;9.37;5.87;;;;;;;;;;5036573;28;20849;-55
2021/12/15 09:16:47;;;;;;;7.90;5.20;;;;;;;;;;5030084;28;20531;-56
2021/12/15 09:19:13;;;;;;;8.10;5.30;;;;;;;;;;5038110;28;20434;-56
2021/12/15 09:21:39;;;;;;;4.57;3.77;;;;;;;;;;5030180;28;20445;-57
2021/12/15 09:24:06;;;;;;;7.93;5.17;;;;;;;;;;5035091;28;20446;-54
2021/12/15 09:26:33;;;;;;;6.73;4.83;;;;;;;;;;5006546;28;20966;-56
2021/12/15 09:29:00;;;;;;;6.43;5.10;;;;;;;;;;5027891;28;20434;-56
2021/12/15 09:31:26;;;;;;;7.43;5.27;;;;;;;;;;5045796;28;20489;-58
2021/12/15 09:33:53;;;;;;;7.27;5.50;;;;;;;;;;5032780;28;23030;-56
2021/12/15 09:36:47;;;;;;;8.13;5.93;;;;;;;;;;5028406;28;20700;-56
2021/12/15 09:39:19;;;;;;;9.47;5.03;;;;;;;;;;5042679;28;20438;-56
2021/12/15 09:41:46;;;;;;;6.40;5.20;;;;;;;;;;5012291;28;21540;-55
2021/12/15 09:44:14;;;;;;;6.20;4.73;;;;;;;;;;5034843;28;20778;-57
2021/12/15 09:47:08;;;;;;;10.27;5.27;;;;;;;;;;5012403;28;20457;-57
2021/12/15 10:03:28;;;;;;;7.50;4.50;;;;;;;;;;5036563;28;20524;-56
2021/12/15 10:06:05;;;;;;;4.80;3.17;;;;;;;;;;5015019;28;20450;-56
2021/12/15 10:19:34;;;;;;;6.63;5.93;;;;;;;;;;5014595;28;20484;-56
2021/12/15 10:22:00;;;;;;;7.60;4.47;;;;;;;;;;5038202;28;20500;-58
2021/12/15 10:24:31;;;;;;;4.73;4.23;;;;;;;;;;5034516;28;20495;-57
2021/12/15 10:27:01;;;;;;;5.40;4.60;;;;;;;;;;5037221;28;20427;-57
2021/12/15 10:29:27;;;;;;;4.30;3.83;;;;;;;;;;5052660;28;20497;-57
2021/12/15 10:31:57;;;;;;;7.03;5.20;;;;;;;;;;5040417;28;20598;-57
2021/12/15 10:34:47;;;;;;;6.77;4.73;;;;;;;;;;5037776;28;20731;-57
2021/12/15 10:37:19;;;;;;;7.63;4.73;;;;;;;;;;5044368;28;20472;-58
2021/12/15 10:40:06;;;;;;;9.80;6.60;;;;;;;;;;5025484;28;21094;-58
2021/12/15 10:42:32;;;;;;;7.00;5.73;;;;;;;;;;5043962;28;20423;-58
2021/12/15 10:45:19;;;;;;;7.07;5.60;;;;;;;;;;5014511;28;20789;-58
2021/12/15 10:47:51;;;;;;;8.13;5.03;;;;;;;;;;5043375;28;20537;-57
2021/12/15 10:50:25;;;;;;;9.10;7.00;;;;;;;;;;5054003;28;21436;-57
2021/12/15 10:52:55;;;;;;;8.53;6.17;;;;;;;;;;5044941;28;20540;-60
2021/12/15 10:55:37;;;;;;;9.37;7.10;;;;;;;;;;5024636;28;21456;-58
2021/12/15 10:58:32;;;;;;;8.43;6.63;;;;;;;;;;5037282;28;20462;-56
2021/12/15 11:00:58;;;;;;;8.30;5.70;;;;;;;;;;5034598;28;20430;-56
2021/12/15 11:03:31;;;;;;;8.30;5.73;;;;;;;;;;5038471;28;20442;-57
2021/12/15 11:05:58;;;;;;;7.57;5.60;;;;;;;;;;4999080;28;20737;-55
2021/12/15 11:08:24;;;;;;;10.37;7.50;;;;;;;;;;5036151;28;20806;-56
2021/12/15 11:10:53;;;;;;;8.60;6.63;;;;;;;;;;5018359;28;20605;-57
2021/12/15 11:13:20;;;;;;;7.80;6.50;;;;;;;;;;5040401;28;20538;-57
2021/12/15 11:15:49;;;;;;;10.23;5.60;;;;;;;;;;5010088;28;20489;-56
2021/12/15 11:18:16;;;;;;;8.53;6.87;;;;;;;;;;5037967;28;20466;-56
2021/12/15 11:20:44;;;;;;;10.83;6.00;;;;;;;;;;5039088;28;20487;-56
2021/12/15 11:23:11;;;;;;;6.87;5.80;;;;;;;;;;5036622;28;20427;-55
2021/12/15 11:25:37;;;;;;;9.90;6.40;;;;;;;;;;5036819;28;20430;-57
2021/12/15 11:28:14;;;;;;;11.17;7.63;;;;;;;;;;5040075;28;20466;-56
2021/12/15 11:30:46;;;;;;;7.73;6.30;;;;;;;;;;5035098;28;20477;-57
2021/12/15 11:33:14;;;;;;;8.07;6.17;;;;;;;;;;5034345;28;20800;-55
2021/12/15 11:36:09;;;;;;;9.60;6.73;;;;;;;;;;5035513;28;21006;-57
2021/12/15 11:38:35;;;;;;;11.53;8.93;;;;;;;;;;5042563;28;20420;-57
2021/12/15 11:41:09;;;;;;;6.30;5.20;;;;;;;;;;5013786;28;20530;-56
2021/12/15 11:43:37;;;;;;;6.50;5.13;;;;;;;;;;5040815;28;20443;-56
2021/12/15 11:46:05;;;;;;;7.13;6.33;;;;;;;;;;5041118;28;20481;-57
2021/12/15 11:48:33;;;;;;;7.20;5.80;;;;;;;;;;5036159;28;20449;-57
2021/12/15 11:51:03;;;;;;;10.57;7.00;;;;;;;;;;5004363;28;20473;-56
2021/12/15 11:53:30;;;;;;;7.17;6.33;;;;;;;;;;5022708;28;20498;-56
2021/12/15 11:56:10;;;;;;;7.40;6.63;;;;;;;;;;5028822;28;20434;-57
2021/12/15 11:58:36;;;;;;;8.23;6.50;;;;;;;;;;5044076;28;20439;-57
2021/12/15 12:01:03;;;;;;;7.97;5.63;;;;;;;;;;5037570;28;20931;-57
2021/12/15 12:03:37;;;;;;;9.30;7.00;;;;;;;;;;5040581;28;20438;-57
2021/12/15 12:06:03;;;;;;;7.57;6.13;;;;;;;;;;5043846;28;20442;-55
2021/12/15 12:08:29;;;;;;;7.33;5.83;;;;;;;;;;5041689;28;20475;-57
2021/12/15 12:11:16;;;;;;;8.70;7.17;;;;;;;;;;5013763;28;20467;-58
2021/12/15 12:13:49;;;;;;;7.40;6.17;;;;;;;;;;5022850;28;20511;-56
2021/12/15 12:16:16;;;;;;;7.40;6.60;;;;;;;;;;4997783;28;20542;-56
2021/12/15 12:18:42;;;;;;;8.60;6.30;;;;;;;;;;5038556;28;20831;-55
2021/12/15 12:21:09;;;;;;;9.57;6.90;;;;;;;;;;5035660;28;20473;-57
2021/12/15 12:23:35;;;;;;;8.73;6.33;;;;;;;;;;5036960;28;20851;-57
2021/12/15 12:26:03;;;;;;;9.30;6.40;;;;;;;;;;5016151;28;20813;-57
2021/12/15 12:28:31;;;;;;;9.87;6.67;;;;;;;;;;5039403;28;20465;-58
2021/12/15 12:31:03;;;;;;;10.73;7.03;;;;;;;;;;5050410;28;20493;-56
2021/12/15 12:33:32;;;;;;;7.20;6.07;;;;;;;;;;5043356;28;20449;-57
2021/12/15 12:36:03;;;;;;;7.77;6.70;;;;;;;;;;5029274;28;20478;-57
2021/12/15 12:38:29;;;;;;;6.70;5.67;;;;;;;;;;5041924;28;20442;-58
2021/12/15 12:40:57;;;;;;;7.27;6.20;;;;;;;;;;4967681;28;20448;-56
2021/12/15 12:43:28;;;;;;;7.70;6.40;;;;;;;;;;5037081;28;20451;-58
2021/12/15 12:46:09;;;;;;;9.30;7.43;;;;;;;;;;5032461;28;20889;-58
2021/12/15 12:59:32;;;;;;;6.37;5.67;;;;;;;;;;5014322;28;20462;-57
2021/12/15 13:02:01;;;;;;;7.00;6.30;;;;;;;;;;5037917;28;20430;-62
2021/12/15 13:04:46;;;;;;;7.83;7.03;;;;;;;;;;5038517;28;20438;-57
2021/12/15 13:07:11;;;;;;;8.13;6.47;;;;;;;;;;5013265;28;20560;-56
2021/12/15 13:09:49;;;;;;;11.00;6.67;;;;;;;;;;5043578;28;20498;-57
2021/12/15 13:12:20;;;;;;;8.40;7.20;;;;;;;;;;5012844;28;20478;-58
2021/12/15 13:14:46;;;;;;;7.80;7.00;;;;;;;;;;5040457;28;20427;-56
2021/12/15 13:17:34;;;;;;;9.27;6.47;;;;;;;;;;5037384;28;20788;-58
2021/12/15 13:20:02;;;;;;;7.17;6.47;;;;;;;;;;5037257;28;20447;-59
2021/12/15 13:22:46;;;;;;;11.93;6.17;;;;;;;;;;5032572;28;20442;-57
2021/12/15 13:30:55;;;;;;;10.90;6.63;;;;;;;;;;5027079;28;20477;-58
2021/12/15 13:33:30;;;;;;;7.47;5.83;;;;;;;;;;5038387;28;20546;-58
2021/12/15 13:36:24;;;;;;;9.13;7.17;;;;;;;;;;5027922;28;20495;-58
2021/12/15 13:38:57;;;;;;;7.23;6.50;;;;;;;;;;5007995;28;20426;-58
2021/12/15 13:41:37;;;;;;;7.70;6.53;;;;;;;;;;5037220;28;20434;-55
2021/12/15 13:44:25;;;;;;;8.10;5.90;;;;;;;;;;4986057;28;20447;-57
2021/12/15 13:46:55;;;;;;;11.50;6.60;;;;;;;;;;5039418;28;20427;-57
2021/12/15 13:49:23;;;;;;;7.50;6.90;;;;;;;;;;5025927;28;20993;-55
2021/12/15 13:52:07;;;;;;;9.03;6.83;;;;;;;;;;5039802;28;20474;-55
2021/12/15 13:54:33;;;;;;;13.43;7.50;;;;;;;;;;5030153;28;20461;-58
2021/12/15 13:57:00;;;;;;;12.07;7.00;;;;;;;;;;5040327;28;20548;-54
2021/12/15 13:59:36;;;;;;;9.43;6.13;;;;;;;;;;5013640;28;20450;-57
2021/12/15 14:02:19;;;;;;;6.97;6.07;;;;;;;;;;5036564;28;20527;-57
2021/12/15 14:04:46;;;;;;;7.43;6.40;;;;;;;;;;5025772;28;20449;-57
2021/12/15 14:07:33;;;;;;;9.03;6.97;;;;;;;;;;5042009;28;20434;-57
2021/12/15 14:10:17;;;;;;;9.80;8.03;;;;;;;;;;5033893;28;20453;-58
2021/12/15 14:13:13;;;;;;;7.40;6.23;;;;;;;;;;5027928;28;20464;-59
2021/12/15 14:15:53;;;;;;;7.10;6.40;;;;;;;;;;5033218;28;20430;-56
2021/12/15 14:18:26;;;;;;;5.80;5.30;;;;;;;;;;5023546;28;21368;-57
2021/12/15 14:21:03;;;;;;;8.27;6.57;;;;;;;;;;5039616;28;20461;-56
2021/12/15 14:23:31;;;;;;;8.33;5.20;;;;;;;;;;5016515;28;21709;-56
2021/12/15 14:25:58;;;;;;;7.97;5.90;;;;;;;;;;5034590;28;20430;-56
2021/12/15 14:28:34;;;;;;;6.73;6.10;;;;;;;;;;5033536;28;20461;-61
2021/12/15 14:31:17;;;;;;;8.00;6.43;;;;;;;;;;5007435;28;20535;-57
2021/12/15 14:33:49;;;;;;;11.30;7.10;;;;;;;;;;5019395;28;21382;-58
2021/12/15 14:36:19;;;;;;;8.03;7.33;;;;;;;;;;5028158;28;20434;-58
2021/12/15 14:38:46;;;;;;;6.37;5.67;;;;;;;;;;5014067;28;21038;-58
2021/12/15 14:41:18;;;;;;;8.00;6.50;;;;;;;;;;5030085;28;20532;-55
2021/12/15 14:43:49;;;;;;;7.70;6.30;;;;;;;;;;5039101;28;20526;-57
2021/12/15 14:46:16;;;;;;;7.23;6.43;;;;;;;;;;4985608;28;20426;-57
2021/12/15 14:48:42;;;;;;;6.53;5.83;;;;;;;;;;5038928;28;20498;-57
2021/12/15 14:51:08;;;;;;;7.83;6.20;;;;;;;;;;5004986;28;20918;-56
2021/12/15 14:53:44;;;;;;;7.33;5.93;;;;;;;;;;5037002;28;20430;-58
2021/12/15 14:56:10;;;;;;;8.43;7.30;;;;;;;;;;5032967;28;20832;-57
2021/12/15 14:58:36;;;;;;;7.10;6.33;;;;;;;;;;5043924;28;20459;-56
2021/12/15 15:01:02;;;;;;;8.13;6.77;;;;;;;;;;5010701;28;20549;-57
2021/12/15 15:03:29;;;;;;;7.73;6.93;;;;;;;;;;5039144;28;20682;-56
2021/12/15 15:05:55;;;;;;;7.43;6.70;;;;;;;;;;5002827;28;20453;-57
2021/12/15 15:08:28;;;;;;;7.50;6.27;;;;;;;;;;5039384;28;20438;-58
2021/12/15 15:13:59;;;;;;;6.10;5.60;;;;;;;;;;5034319;28;20443;-56
2021/12/15 15:16:43;;;;;;;8.67;6.87;;;;;;;;;;5034645;28;20446;-56
2021/12/15 15:22:16;;;;;;;7.03;6.00;;;;;;;;;;5032392;28;20452;-56
2021/12/15 15:24:46;;;;;;;6.50;5.70;;;;;;;;;;5025925;28;20449;-58
2021/12/15 15:27:13;;;;;;;12.37;8.80;;;;;;;;;;5034853;28;20447;-58
2021/12/15 15:29:40;;;;;;;11.73;7.70;;;;;;;;;;5016778;28;20595;-58
2021/12/15 15:32:10;;;;;;;8.70;7.50;;;;;;;;;;5040693;28;20478;-57
2021/12/15 15:34:46;;;;;;;11.40;8.07;;;;;;;;;;5047101;28;20787;-58
2021/12/15 15:37:20;;;;;;;10.93;7.70;;;;;;;;;;5039260;28;20430;-57
2021/12/15 15:39:47;;;;;;;7.97;6.73;;;;;;;;;;5005703;28;20435;-58
2021/12/15 15:42:20;;;;;;;8.63;7.20;;;;;;;;;;5042173;28;20441;-58
2021/12/15 15:44:46;;;;;;;10.63;7.10;;;;;;;;;;5026632;28;20470;-57
2021/12/15 15:47:16;;;;;;;8.20;6.77;;;;;;;;;;5039640;28;20422;-59
2021/12/15 15:50:11;;;;;;;8.30;7.53;;;;;;;;;;5021933;28;20438;-57
2021/12/15 15:52:48;;;;;;;8.27;7.47;;;;;;;;;;5035229;28;20529;-58
2021/12/15 15:55:14;;;;;;;8.10;6.50;;;;;;;;;;4968522;28;20787;-56
2021/12/15 15:57:47;;;;;;;8.00;6.77;;;;;;;;;;5041844;28;20426;-56
2021/12/15 16:00:15;;;;;;;7.60;6.70;;;;;;;;;;5012509;28;20458;-57
2021/12/15 16:02:41;;;;;;;9.10;6.90;;;;;;;;;;5041433;28;21130;-57
2021/12/15 16:05:26;;;;;;;7.23;5.73;;;;;;;;;;5027923;28;20944;-58
2021/12/15 16:07:56;;;;;;;6.43;5.70;;;;;;;;;;5035679;28;20447;-59
2021/12/15 16:10:24;;;;;;;6.60;5.70;;;;;;;;;;5005310;28;20926;-57
2021/12/15 16:12:50;;;;;;;7.37;6.43;;;;;;;;;;5046165;28;20921;-54
2021/12/15 16:15:17;;;;;;;6.77;6.20;;;;;;;;;;5027035;28;20501;-54
2021/12/15 16:17:56;;;;;;;7.70;6.70;;;;;;;;;;5030060;28;20449;-55
2021/12/15 16:20:23;;;;;;;7.70;6.90;;;;;;;;;;5030485;28;20430;-54
2021/12/15 16:23:02;;;;;;;7.70;6.90;;;;;;;;;;5043479;28;20438;-56
2021/12/15 16:25:32;;;;;;;6.00;5.40;;;;;;;;;;5028316;28;20426;-56
2021/12/15 16:28:05;;;;;;;6.13;5.50;;;;;;;;;;5037408;28;20442;-55
2021/12/15 16:30:36;;;;;;;6.13;5.23;;;;;;;;;;5032727;28;20490;-54
2021/12/15 16:33:03;;;;;;;5.67;4.93;;;;;;;;;;5009786;28;20454;-54